KDPA/DPA METAR and TAF weather

Enter ICAO airport designator
Station Type Date Time Source
KDPA METAR 2018/12/12 15:52 UTC NOAA

KDPA 121552Z 22013G23KT 6SM HZ OVC018 04/00 A2972 RMK AO2 SLP070 T00390000


Station Type Date Time Source
KDPA Decoded METAR 2018/12/12 15:52 UTC NOAA

CHICAGO/WEST CH DUPAGE, IL, United States (KDPA) 41-54N 88-15W 230M
Dec 12, 2018 - 10:52 AM EST / 2018.12.12 1552 UTC
Wind: from the SW (220 degrees) at 15 MPH (13 KT) gusting to 26 MPH (23 KT):0
Visibility: 6 mile(s):0
Sky conditions: overcast
Weather: haze
Temperature: 39.0 F (3.9 C)
Dew Point: 32.0 F (0.0 C)
Relative Humidity: 75%
Pressure (altimeter): 29.72 in. Hg (1006 hPa)
ob: KDPA 121552Z 22013G23KT 6SM HZ OVC018 04/00 A2972 RMK AO2 SLP070 T00390000
cycle: 16

Station Type Date Time Source
KDPA TAF 2018/12/12 16:59 UTC NOAA

TAF
AMD KDPA 121559Z 1216/1312 22013G24KT P6SM OVC018
FM121700 24013G21KT P6SM OVC020
FM130300 VRB04KT P6SM SCT050 SCT120


Example: see airport list